Time;durP1;ratioP1;P1;durP2;ratioP2;P2;SDS_P1;SDS_P2;PMS_P1;PMS_P2;Temp;Humidity;BMP_temperature;BMP_pressure;BME280_temperature;BME280_humidity;BME280_pressure;Samples;Min_cycle;Max_cycle;Signal;HPM_P1;HPM_P2
2022/09/19 00:01:10;;;;;;;2.38;0.70;;;9.00;99.90;;;;;;5014147;28;20438;-46
2022/09/19 00:03:37;;;;;;;0.70;0.70;;;9.00;99.90;;;;;;5013876;28;20037;-48
2022/09/19 00:06:03;;;;;;;0.52;0.52;;;9.00;99.90;;;;;;5014977;28;20413;-47
2022/09/19 00:08:29;;;;;;;0.40;0.40;;;9.00;99.90;;;;;;5014990;28;20033;-47
2022/09/19 00:10:55;;;;;;;3.22;0.95;;;9.00;99.90;;;;;;5014991;28;20030;-50
2022/09/19 00:13:20;;;;;;;2.83;0.60;;;9.10;99.90;;;;;;5028925;28;20080;-48
2022/09/19 00:15:49;;;;;;;0.50;0.50;;;9.10;99.90;;;;;;5013724;28;20489;-48
2022/09/19 00:18:15;;;;;;;1.95;0.50;;;9.10;99.90;;;;;;5013780;28;20018;-47
2022/09/19 00:20:43;;;;;;;4.25;0.80;;;9.10;99.90;;;;;;5013339;28;20030;-46
2022/09/19 00:26:03;;;;;;;1.30;0.67;;;9.10;99.90;;;;;;5013726;28;20052;-49
2022/09/19 00:28:29;;;;;;;2.30;0.57;;;9.10;99.90;;;;;;5012403;28;20041;-48
2022/09/19 00:30:56;;;;;;;3.95;1.30;;;9.20;99.90;;;;;;5013774;28;20433;-49
2022/09/19 00:33:30;;;;;;;0.57;0.50;;;9.20;99.90;;;;;;5013137;28;20029;-47
2022/09/19 00:35:57;;;;;;;2.13;0.52;;;9.10;99.90;;;;;;5013416;28;20049;-48
2022/09/19 00:38:24;;;;;;;3.17;0.93;;;9.20;99.90;;;;;;5012481;28;20116;-47
2022/09/19 00:40:50;;;;;;;2.53;0.80;;;9.10;99.90;;;;;;5013399;28;20057;-49
2022/09/19 00:43:18;;;;;;;1.02;0.93;;;9.20;99.90;;;;;;5012995;28;20068;-45
2022/09/19 00:45:45;;;;;;;0.90;0.50;;;9.20;99.90;;;;;;5013315;28;20122;-47
2022/09/19 00:48:13;;;;;;;6.72;0.75;;;9.10;99.90;;;;;;5013260;28;20076;-47
2022/09/19 00:50:39;;;;;;;3.40;0.57;;;9.20;99.90;;;;;;5013066;28;20025;-46
2022/09/19 00:53:09;;;;;;;3.28;0.73;;;9.20;99.90;;;;;;5012932;28;20030;-46
2022/09/19 00:55:36;;;;;;;0.80;0.75;;;9.20;99.90;;;;;;5012982;28;20040;-49
2022/09/19 00:58:30;;;;;;;2.17;0.77;;;9.20;99.90;;;;;;5013075;28;20101;-48
2022/09/19 01:00:57;;;;;;;3.70;0.82;;;9.20;99.90;;;;;;5012405;28;20042;-49
2022/09/19 01:03:25;;;;;;;3.00;0.65;;;9.30;99.90;;;;;;5012504;28;20026;-47
2022/09/19 01:06:18;;;;;;;2.63;0.98;;;9.30;99.90;;;;;;5012729;28;20022;-50
2022/09/19 01:09:00;;;;;;;0.98;0.77;;;9.40;99.90;;;;;;5012744;28;20068;-47
2022/09/19 01:12:02;;;;;;;2.83;0.73;;;9.40;99.90;;;;;;5012738;28;20079;-48
2022/09/19 01:15:09;;;;;;;4.22;0.70;;;9.40;99.90;;;;;;5007206;28;20081;-51
2022/09/19 01:17:47;;;;;;;;;;;9.40;99.90;;;;;;5013110;28;20080;-50
2022/09/19 01:20:28;;;;;;;1.40;0.60;;;9.40;99.90;;;;;;5012371;28;19906;-46
2022/09/19 01:23:26;;;;;;;2.53;0.80;;;9.40;99.90;;;;;;5012295;28;20021;-47
2022/09/19 01:26:31;;;;;;;3.13;0.80;;;9.50;99.90;;;;;;5012540;28;20471;-45
2022/09/19 01:29:09;;;;;;;1.15;0.70;;;9.50;99.90;;;;;;5012595;28;20485;-48
2022/09/19 01:31:40;;;;;;;1.80;0.93;;;9.60;99.90;;;;;;5012414;28;20025;-51
2022/09/19 01:34:20;;;;;;;6.25;0.90;;;9.60;99.90;;;;;;5027132;28;20444;-47
2022/09/19 01:37:03;;;;;;;4.07;1.00;;;9.70;99.90;;;;;;5012275;28;20022;-47
2022/09/19 01:39:32;;;;;;;5.95;0.77;;;9.70;99.90;;;;;;5012308;28;20026;-50
2022/09/19 01:41:58;;;;;;;6.90;1.23;;;9.70;99.90;;;;;;5011880;28;20493;-45
2022/09/19 01:44:26;;;;;;;5.82;0.75;;;9.70;99.90;;;;;;5012146;28;20060;-51
2022/09/19 01:47:13;;;;;;;5.10;0.80;;;9.80;99.90;;;;;;5012444;28;20439;-46
2022/09/19 01:49:41;;;;;;;7.90;2.03;;;9.80;99.90;;;;;;5012008;28;20536;-49
2022/09/19 01:52:31;;;;;;;7.68;1.25;;;9.80;99.90;;;;;;5011769;28;20053;-48
2022/09/19 01:55:15;;;;;;;2.88;0.93;;;9.80;99.90;;;;;;5012359;28;20037;-48
2022/09/19 01:57:52;;;;;;;2.10;1.23;;;9.70;99.90;;;;;;5012360;28;20022;-47
2022/09/19 02:00:22;;;;;;;5.05;1.30;;;9.70;99.90;;;;;;5012215;28;20022;-46
2022/09/19 02:02:56;;;;;;;1.73;1.00;;;9.80;99.90;;;;;;5012019;28;20026;-47
2022/09/19 02:05:37;;;;;;;10.85;1.50;;;9.80;99.90;;;;;;5012034;28;20157;-50
2022/09/19 02:08:19;;;;;;;3.10;0.88;;;9.80;99.90;;;;;;5011866;28;20050;-46
2022/09/19 02:10:54;;;;;;;4.85;0.95;;;9.90;99.90;;;;;;5012086;28;20036;-45
2022/09/19 02:13:24;;;;;;;2.97;1.02;;;9.80;99.90;;;;;;5011404;28;20022;-51
2022/09/19 02:15:58;;;;;;;4.47;1.08;;;9.80;99.90;;;;;;5011754;28;20032;-51
2022/09/19 02:18:34;;;;;;;3.40;1.00;;;9.90;99.90;;;;;;5011874;28;20393;-48
2022/09/19 02:21:06;;;;;;;7.43;1.35;;;10.00;99.90;;;;;;5011651;28;20054;-47
2022/09/19 02:23:37;;;;;;;6.70;1.08;;;10.00;99.90;;;;;;5011468;28;20041;-47
2022/09/19 02:26:08;;;;;;;6.15;1.55;;;10.00;99.90;;;;;;5011856;28;20030;-53
2022/09/19 02:28:39;;;;;;;6.57;1.40;;;10.10;99.90;;;;;;5011744;28;20394;-50
2022/09/19 02:31:06;;;;;;;12.88;1.50;;;10.10;99.90;;;;;;5011700;28;20034;-48
2022/09/19 02:33:35;;;;;;;9.48;1.88;;;10.10;99.90;;;;;;5011240;28;20084;-46
2022/09/19 02:36:23;;;;;;;6.75;1.40;;;10.20;99.90;;;;;;5011630;28;20094;-48
2022/09/19 02:39:01;;;;;;;4.78;1.33;;;10.20;99.90;;;;;;5011559;28;20052;-48
2022/09/19 02:41:38;;;;;;;6.75;1.90;;;10.20;99.90;;;;;;5011740;28;20029;-48
2022/09/19 02:44:06;;;;;;;6.65;1.98;;;10.20;99.90;;;;;;5026371;28;20029;-49
2022/09/19 02:46:38;;;;;;;5.75;1.50;;;10.10;99.90;;;;;;5011440;28;20040;-48
2022/09/19 02:49:19;;;;;;;6.43;2.13;;;10.10;99.90;;;;;;5010570;28;20018;-49
2022/09/19 02:51:50;;;;;;;5.30;1.42;;;10.10;99.90;;;;;;5011501;28;20424;-48
2022/09/19 02:54:23;;;;;;;4.90;0.90;;;10.10;99.90;;;;;;5011301;28;20493;-49
2022/09/19 02:56:50;;;;;;;6.53;1.50;;;10.20;99.90;;;;;;5011314;28;20401;-46
2022/09/19 02:59:23;;;;;;;10.25;1.40;;;10.20;99.90;;;;;;5011438;28;20025;-50
2022/09/19 03:01:53;;;;;;;8.70;1.30;;;10.30;99.90;;;;;;5013895;28;20548;-49
2022/09/19 03:04:25;;;;;;;7.35;1.55;;;10.30;99.90;;;;;;5015065;28;20052;-47
2022/09/19 03:07:24;;;;;;;10.63;1.48;;;10.30;99.90;;;;;;5015166;28;20029;-50
2022/09/19 03:10:13;;;;;;;7.20;1.20;;;10.40;99.90;;;;;;5015276;28;20022;-46
2022/09/19 03:12:51;;;;;;;6.70;1.25;;;10.40;99.90;;;;;;5014456;28;20175;-47
2022/09/19 03:15:26;;;;;;;10.48;1.55;;;10.30;99.90;;;;;;5015153;28;20440;-48
2022/09/19 03:17:53;;;;;;;9.52;1.67;;;10.40;99.90;;;;;;5014839;28;20037;-47
2022/09/19 03:20:24;;;;;;;3.33;1.00;;;10.40;99.90;;;;;;5014523;28;20030;-47
2022/09/19 03:22:50;;;;;;;8.57;2.20;;;10.30;99.90;;;;;;5014408;28;20105;-49
2022/09/19 03:25:16;;;;;;;6.00;1.23;;;10.30;99.90;;;;;;5014740;28;20029;-48
2022/09/19 03:27:41;;;;;;;9.52;1.80;;;10.30;99.90;;;;;;5014433;28;20026;-50
2022/09/19 03:30:12;;;;;;;6.25;1.17;;;10.40;99.90;;;;;;5014408;28;20033;-45
2022/09/19 03:32:41;;;;;;;11.15;1.90;;;10.40;99.90;;;;;;5029176;28;20026;-47
2022/09/19 03:35:07;;;;;;;7.15;1.45;;;10.40;99.90;;;;;;5014528;28;20049;-47
2022/09/19 03:37:33;;;;;;;4.53;1.23;;;10.50;99.90;;;;;;5014584;28;20033;-48
2022/09/19 03:39:59;;;;;;;8.15;1.80;;;10.50;99.90;;;;;;5014298;28;20014;-45
2022/09/19 03:42:26;;;;;;;11.05;1.38;;;10.50;99.90;;;;;;5013788;28;20068;-46
2022/09/19 03:44:52;;;;;;;5.25;1.25;;;10.50;99.90;;;;;;5014400;28;20113;-46
2022/09/19 03:47:21;;;;;;;7.78;2.40;;;10.50;99.90;;;;;;5014294;28;20022;-47
2022/09/19 03:49:50;;;;;;;6.38;1.77;;;10.40;99.90;;;;;;5014167;28;20024;-47
2022/09/19 03:52:16;;;;;;;9.93;1.60;;;10.40;99.90;;;;;;5029046;28;20108;-48
2022/09/19 03:54:43;;;;;;;12.02;1.50;;;10.40;99.90;;;;;;5014009;28;20541;-52
2022/09/19 03:57:08;;;;;;;9.15;1.70;;;10.40;99.90;;;;;;5014040;28;20110;-48
2022/09/19 03:59:36;;;;;;;5.03;2.03;;;10.40;99.90;;;;;;5014113;28;20319;-47
2022/09/19 04:02:01;;;;;;;11.65;2.17;;;10.40;99.90;;;;;;5012496;28;20022;-45
2022/09/19 04:04:27;;;;;;;7.50;2.47;;;10.30;99.90;;;;;;5013868;28;20382;-48
2022/09/19 04:06:52;;;;;;;6.82;1.75;;;10.30;99.90;;;;;;5013817;28;20037;-47
2022/09/19 04:09:18;;;;;;;8.13;1.38;;;10.20;99.90;;;;;;5014041;28;20383;-47
2022/09/19 04:11:43;;;;;;;9.30;1.92;;;10.20;99.90;;;;;;5013669;28;20513;-46
2022/09/19 04:14:09;;;;;;;10.45;1.73;;;10.20;99.90;;;;;;5025946;22;20073;-49
2022/09/19 04:16:35;;;;;;;8.60;1.75;;;10.20;99.90;;;;;;5013867;28;20029;-52
2022/09/19 04:19:00;;;;;;;12.70;1.85;;;10.20;99.90;;;;;;5013642;28;20551;-51
2022/09/19 04:21:26;;;;;;;8.60;1.90;;;10.30;99.90;;;;;;5012020;28;20022;-51
2022/09/19 04:23:54;;;;;;;9.98;1.90;;;10.30;99.90;;;;;;5013304;28;20486;-50
2022/09/19 04:26:21;;;;;;;9.57;1.52;;;10.30;99.90;;;;;;5013732;28;20021;-49
2022/09/19 04:28:47;;;;;;;12.65;1.67;;;10.20;99.90;;;;;;5013475;28;20018;-51
2022/09/19 04:31:13;;;;;;;9.30;1.50;;;10.30;99.90;;;;;;5012966;28;20026;-51
2022/09/19 04:33:39;;;;;;;6.50;2.75;;;10.30;99.90;;;;;;5028121;28;20037;-51
2022/09/19 04:36:05;;;;;;;10.18;2.42;;;10.40;99.90;;;;;;5013274;28;20057;-50
2022/09/19 04:38:33;;;;;;;8.68;2.00;;;10.40;99.90;;;;;;5013297;28;20033;-52
2022/09/19 04:41:00;;;;;;;6.32;1.80;;;10.50;99.90;;;;;;5028611;28;20077;-50
2022/09/19 04:43:26;;;;;;;14.45;2.30;;;10.50;99.90;;;;;;5012717;28;20379;-50
2022/09/19 04:45:54;;;;;;;5.50;1.50;;;10.60;99.90;;;;;;5028418;28;20379;-51
2022/09/19 04:48:20;;;;;;;5.47;1.92;;;10.60;99.90;;;;;;5013489;28;20030;-55
2022/09/19 04:50:51;;;;;;;13.27;3.00;;;10.60;99.90;;;;;;5013120;28;20592;-54
2022/09/19 04:53:18;;;;;;;11.18;2.38;;;10.60;99.90;;;;;;5012568;28;20080;-50
2022/09/19 04:55:48;;;;;;;9.93;2.00;;;10.60;99.90;;;;;;5013258;28;20064;-53
2022/09/19 04:58:15;;;;;;;10.85;2.40;;;10.60;99.90;;;;;;5012683;28;20045;-54
2022/09/19 05:00:41;;;;;;;9.60;2.08;;;10.70;99.90;;;;;;5013028;28;20095;-49
2022/09/19 05:03:11;;;;;;;5.93;1.73;;;10.70;99.90;;;;;;5012459;28;20112;-48
2022/09/19 05:05:50;;;;;;;8.95;1.83;;;10.70;99.90;;;;;;5012780;28;20108;-49
2022/09/19 05:08:19;;;;;;;18.08;3.05;;;10.80;99.90;;;;;;5012894;28;20107;-55
2022/09/19 05:10:48;;;;;;;15.55;3.15;;;10.70;99.90;;;;;;5012766;28;20021;-50
2022/09/19 05:13:14;;;;;;;7.88;2.00;;;10.70;99.90;;;;;;5012175;28;20053;-51
2022/09/19 05:15:41;;;;;;;13.05;2.78;;;10.70;99.90;;;;;;5012600;28;20505;-50
2022/09/19 05:18:10;;;;;;;9.95;2.95;;;10.70;99.90;;;;;;5012616;28;20113;-54
2022/09/19 05:20:36;;;;;;;13.25;2.80;;;10.70;99.90;;;;;;5012213;28;20018;-51
2022/09/19 05:23:02;;;;;;;10.90;2.92;;;10.70;99.90;;;;;;5011643;28;20030;-49
2022/09/19 05:25:29;;;;;;;8.00;2.42;;;10.70;99.90;;;;;;5012314;28;20501;-53
2022/09/19 05:28:05;;;;;;;14.50;2.28;;;10.70;99.90;;;;;;5012383;28;20022;-49
2022/09/19 05:30:45;;;;;;;9.93;1.90;;;10.70;99.90;;;;;;5012260;28;20030;-50
2022/09/19 05:33:11;;;;;;;7.10;2.22;;;10.70;99.90;;;;;;5012047;28;20026;-52
2022/09/19 05:35:37;;;;;;;5.03;1.98;;;10.80;99.90;;;;;;5011059;28;20485;-50
2022/09/19 05:38:04;;;;;;;7.72;2.38;;;10.80;99.90;;;;;;5012082;28;20509;-47
2022/09/19 05:40:29;;;;;;;11.77;2.42;;;10.80;99.90;;;;;;5027251;28;20079;-49
2022/09/19 05:43:03;;;;;;;12.23;2.55;;;10.80;99.90;;;;;;5011755;28;20478;-52
2022/09/19 05:45:28;;;;;;;10.82;2.20;;;10.80;99.90;;;;;;5011847;28;20440;-51
2022/09/19 05:48:05;;;;;;;11.07;3.42;;;10.80;99.90;;;;;;5011727;28;20029;-49
2022/09/19 05:50:31;;;;;;;5.78;2.17;;;10.90;99.90;;;;;;5011770;28;20559;-57
2022/09/19 05:55:40;;;;;;;13.20;2.60;;;10.80;99.90;;;;;;5012150;28;20025;-56
2022/09/19 05:58:06;;;;;;;12.07;3.25;;;10.90;99.90;;;;;;5011750;28;20026;-52
2022/09/19 06:00:32;;;;;;;13.20;2.33;;;10.90;99.90;;;;;;5011782;28;20034;-52
2022/09/19 06:03:02;;;;;;;19.70;2.70;;;11.00;99.90;;;;;;5011558;28;20030;-50
2022/09/19 06:05:32;;;;;;;11.20;2.15;;;11.10;99.90;;;;;;5011778;28;20087;-49
2022/09/19 06:07:59;;;;;;;6.20;2.03;;;11.10;99.90;;;;;;5012060;28;20026;-51
2022/09/19 06:10:26;;;;;;;8.77;2.45;;;11.10;99.90;;;;;;5011640;28;20030;-51
2022/09/19 06:12:55;;;;;;;7.63;2.25;;;11.10;99.90;;;;;;5012470;28;20034;-51
2022/09/19 06:15:21;;;;;;;17.50;3.63;;;11.20;99.90;;;;;;5013116;28;20034;-49
2022/09/19 06:17:49;;;;;;;13.02;2.03;;;11.30;99.90;;;;;;5012797;28;20076;-48
2022/09/19 06:20:15;;;;;;;7.80;2.05;;;11.40;99.90;;;;;;5011579;28;20442;-56
2022/09/19 06:22:41;;;;;;;18.92;2.83;;;11.60;99.90;;;;;;5012007;28;20048;-55
2022/09/19 06:25:07;;;;;;;12.18;2.53;;;11.90;99.90;;;;;;5011679;28;20497;-52
2022/09/19 06:27:33;;;;;;;10.38;2.40;;;12.10;99.90;;;;;;5011734;28;20037;-51
2022/09/19 06:29:59;;;;;;;8.68;1.77;;;12.20;99.90;;;;;;5011454;28;20493;-53
2022/09/19 06:32:25;;;;;;;17.48;1.92;;;12.30;99.90;;;;;;5011280;28;20034;-51
2022/09/19 06:34:50;;;;;;;6.22;1.73;;;12.30;99.90;;;;;;5029913;28;20076;-53
2022/09/19 06:37:16;;;;;;;5.32;1.63;;;12.60;99.90;;;;;;5017083;28;20026;-51
2022/09/19 06:39:42;;;;;;;13.32;2.38;;;13.20;99.90;;;;;;5015384;28;20088;-48
2022/09/19 06:42:07;;;;;;;8.13;2.00;;;13.80;99.90;;;;;;5015190;28;20018;-51
2022/09/19 06:44:33;;;;;;;7.80;1.98;;;14.40;99.90;;;;;;5015218;28;20030;-53
2022/09/19 06:46:59;;;;;;;10.07;2.40;;;14.60;99.90;;;;;;5015405;28;20080;-51
2022/09/19 06:49:24;;;;;;;12.52;3.00;;;14.90;99.90;;;;;;5030461;28;20026;-50
2022/09/19 06:51:50;;;;;;;9.85;1.95;;;14.70;99.90;;;;;;5013996;28;20649;-47
2022/09/19 06:54:15;;;;;;;12.98;2.22;;;14.30;99.90;;;;;;5013514;28;20029;-51
2022/09/19 06:56:41;;;;;;;9.43;2.20;;;13.80;99.90;;;;;;5015301;28;20093;-48
2022/09/19 06:59:07;;;;;;;10.93;2.25;;;13.50;99.90;;;;;;5015064;28;20045;-49
2022/09/19 07:01:33;;;;;;;9.75;2.58;;;13.20;99.90;;;;;;5015217;28;20026;-52
2022/09/19 07:03:59;;;;;;;12.43;2.45;;;12.90;99.90;;;;;;5014860;28;20025;-49
2022/09/19 07:06:25;;;;;;;7.82;1.85;;;12.70;99.90;;;;;;5015115;28;20030;-51
2022/09/19 07:08:50;;;;;;;5.05;1.73;;;12.60;99.90;;;;;;5014905;28;20030;-52
2022/09/19 07:11:16;;;;;;;9.57;2.45;;;12.50;99.90;;;;;;5014856;28;20109;-49
2022/09/19 07:13:43;;;;;;;6.15;1.85;;;12.30;99.90;;;;;;5014358;28;20060;-48
2022/09/19 07:16:08;;;;;;;7.18;1.77;;;12.20;99.90;;;;;;5014971;28;20018;-49
2022/09/19 07:18:35;;;;;;;12.93;3.13;;;12.20;99.90;;;;;;5014869;28;20056;-49
2022/09/19 07:21:01;;;;;;;4.97;2.03;;;12.20;99.90;;;;;;5014642;28;20473;-53
2022/09/19 07:23:26;;;;;;;10.48;2.42;;;12.20;99.90;;;;;;5014325;28;20112;-48
2022/09/19 07:25:57;;;;;;;5.18;2.00;;;12.20;99.90;;;;;;5013379;28;20025;-50
2022/09/19 07:28:23;;;;;;;8.60;3.03;;;12.30;99.90;;;;;;5014653;28;20449;-49
2022/09/19 07:30:50;;;;;;;9.90;2.28;;;12.30;99.90;;;;;;5014676;28;20029;-48
2022/09/19 07:33:19;;;;;;;9.57;2.33;;;12.50;99.90;;;;;;5014352;28;20061;-52
2022/09/19 07:35:46;;;;;;;8.63;3.03;;;12.60;99.90;;;;;;5013232;28;20486;-47
2022/09/19 07:38:13;;;;;;;7.50;3.25;;;12.70;99.90;;;;;;5014355;28;20486;-50
2022/09/19 07:40:40;;;;;;;12.25;2.30;;;12.90;99.90;;;;;;5014571;28;20026;-48
2022/09/19 07:43:05;;;;;;;6.60;2.72;;;13.00;99.90;;;;;;5014435;28;20493;-50
2022/09/19 07:45:36;;;;;;;8.65;2.72;;;13.10;99.90;;;;;;5013187;28;20060;-49
2022/09/19 07:48:03;;;;;;;9.77;1.90;;;13.20;99.90;;;;;;5013811;28;20095;-52
2022/09/19 07:50:29;;;;;;;11.20;2.53;;;13.30;99.90;;;;;;5013949;28;20036;-48
2022/09/19 07:53:10;;;;;;;13.02;1.80;;;13.30;99.90;;;;;;5013373;28;20486;-49
2022/09/19 07:55:36;;;;;;;7.65;2.17;;;13.20;99.90;;;;;;5014069;28;20080;-50
2022/09/19 07:58:03;;;;;;;9.80;2.65;;;13.10;99.90;;;;;;5014611;28;20026;-49
2022/09/19 08:00:30;;;;;;;9.95;2.08;;;13.00;99.90;;;;;;5013058;28;20022;-49
2022/09/19 08:02:58;;;;;;;8.85;1.80;;;12.90;99.90;;;;;;5011999;28;20025;-50
2022/09/19 08:05:24;;;;;;;7.03;1.83;;;12.80;99.90;;;;;;5013253;28;20390;-47
2022/09/19 08:07:50;;;;;;;7.07;2.10;;;12.70;99.90;;;;;;5014055;28;20022;-51
2022/09/19 08:10:16;;;;;;;9.18;2.22;;;12.70;99.90;;;;;;5015809;28;20030;-51
2022/09/19 08:12:45;;;;;;;6.05;2.33;;;12.80;99.90;;;;;;5028748;28;20524;-49
2022/09/19 08:15:15;;;;;;;10.77;2.15;;;12.90;99.90;;;;;;5013920;28;20022;-47
2022/09/19 08:18:01;;;;;;;6.13;1.70;;;12.90;99.90;;;;;;5013752;28;20409;-49
2022/09/19 08:20:36;;;;;;;7.78;2.03;;;13.00;99.90;;;;;;5012716;28;20042;-46
2022/09/19 08:23:07;;;;;;;5.50;1.67;;;13.20;99.90;;;;;;5013351;28;20101;-53
2022/09/19 08:25:34;;;;;;;6.68;2.42;;;13.20;99.90;;;;;;5013749;28;20026;-51
2022/09/19 08:28:02;;;;;;;9.85;1.85;;;13.20;99.90;;;;;;5013566;28;20076;-51
2022/09/19 08:30:27;;;;;;;6.88;2.30;;;13.10;99.90;;;;;;5028718;28;20101;-50
2022/09/19 08:32:55;;;;;;;6.25;1.70;;;13.20;99.90;;;;;;5012978;28;20026;-47
2022/09/19 08:35:20;;;;;;;9.57;2.25;;;13.20;99.90;;;;;;5013468;28;20022;-50
2022/09/19 08:37:47;;;;;;;9.00;2.67;;;13.40;99.90;;;;;;5013255;28;20076;-47
2022/09/19 08:40:28;;;;;;;4.10;1.83;;;13.60;99.90;;;;;;5028496;28;20456;-50
2022/09/19 08:43:26;;;;;;;7.20;2.00;;;13.70;99.90;;;;;;5013018;28;20028;-48
2022/09/19 08:46:12;;;;;;;4.72;2.17;;;13.80;99.90;;;;;;5013116;28;20392;-51
2022/09/19 08:48:58;;;;;;;6.18;2.67;;;14.10;99.90;;;;;;5013002;28;20089;-49
2022/09/19 08:51:43;;;;;;;7.60;1.98;;;14.30;99.90;;;;;;5013734;28;20113;-49
2022/09/19 08:54:24;;;;;;;13.75;2.67;;;14.40;99.90;;;;;;5012714;28;20049;-52
2022/09/19 08:56:50;;;;;;;5.07;1.63;;;14.30;99.90;;;;;;5012762;28;20037;-49
2022/09/19 08:59:20;;;;;;;7.78;2.47;;;14.40;99.90;;;;;;5011790;28;20022;-51
2022/09/19 09:01:47;;;;;;;5.40;1.83;;;14.50;99.90;;;;;;5012959;28;20046;-51
2022/09/19 09:04:13;;;;;;;9.45;2.40;;;14.50;99.90;;;;;;5012797;28;20044;-49
2022/09/19 09:07:22;;;;;;;6.50;2.10;;;14.30;99.90;;;;;;5012708;28;20030;-50
2022/09/19 09:10:02;;;;;;;10.05;2.22;;;14.30;99.90;;;;;;5012667;28;20041;-49
2022/09/19 09:12:31;;;;;;;7.53;1.70;;;14.10;99.90;;;;;;5012187;28;20479;-52
2022/09/19 09:15:25;;;;;;;6.10;2.33;;;14.10;99.90;;;;;;5013169;28;20057;-49
2022/09/19 09:17:56;;;;;;;3.83;2.10;;;14.10;99.90;;;;;;5012432;28;20370;-50
2022/09/19 09:20:44;;;;;;;7.95;2.53;;;14.20;99.90;;;;;;5068631;28;20806;-50
2022/09/19 09:23:14;;;;;;;9.95;2.58;;;14.10;99.90;;;;;;5068427;28;20091;-51
2022/09/19 09:25:45;;;;;;;5.05;1.95;;;14.20;99.90;;;;;;5070232;28;20020;-50
2022/09/19 09:28:25;;;;;;;5.18;1.75;;;14.70;99.90;;;;;;5069406;28;20032;-53
2022/09/19 09:30:52;;;;;;;8.93;1.98;;;15.30;99.90;;;;;;5068773;28;20025;-51
2022/09/19 09:33:24;;;;;;;6.78;1.98;;;15.60;99.90;;;;;;5068206;28;20025;-51
2022/09/19 09:36:06;;;;;;;6.55;1.90;;;15.60;99.90;;;;;;5068271;28;20443;-54
2022/09/19 09:38:36;;;;;;;10.05;2.58;;;15.40;99.90;;;;;;5068558;28;20025;-54
2022/09/19 09:41:47;;;;;;;6.55;2.20;;;15.40;99.90;;;;;;5067319;28;20031;-52
2022/09/19 09:44:13;;;;;;;9.15;2.03;;;15.70;99.90;;;;;;5068142;28;20020;-51
2022/09/19 09:46:54;;;;;;;4.95;1.90;;;15.80;99.90;;;;;;5068205;28;20480;-50
2022/09/19 09:49:29;;;;;;;8.55;2.47;;;15.90;99.90;;;;;;5067929;28;20539;-53
2022/09/19 09:52:57;;;;;;;12.70;2.50;;;16.10;99.90;;;;;;5068174;28;20074;-49
2022/09/19 09:58:43;;;;;;;3.80;1.33;;;16.40;99.90;;;;;;5045644;28;20036;-54
2022/09/19 10:04:16;;;;;;;8.85;2.20;;;16.80;99.90;;;;;;5067429;28;20024;-49
2022/09/19 10:07:03;;;;;;;6.93;2.30;;;16.90;99.90;;;;;;5068127;28;20040;-52
2022/09/19 10:09:37;;;;;;;7.72;2.10;;;16.80;99.90;;;;;;5068313;28;20029;-53
2022/09/19 10:12:23;;;;;;;7.07;1.88;;;16.70;99.90;;;;;;5066440;28;20029;-53
2022/09/19 10:14:54;;;;;;;7.63;1.60;;;16.80;99.90;;;;;;5068261;28;20025;-53
2022/09/19 10:17:22;;;;;;;5.53;1.90;;;16.80;99.90;;;;;;5068091;28;20032;-51
2022/09/19 10:19:55;;;;;;;4.97;1.48;;;16.80;99.90;;;;;;5066935;28;20112;-55
2022/09/19 10:22:22;;;;;;;4.85;1.65;;;16.80;99.90;;;;;;5067547;28;20500;-51
2022/09/19 10:24:56;;;;;;;5.18;1.65;;;16.60;99.90;;;;;;5067408;28;20027;-56
2022/09/19 10:27:31;;;;;;;4.88;1.77;;;16.70;99.90;;;;;;5067441;28;20041;-52
2022/09/19 10:30:11;;;;;;;4.68;1.55;;;16.70;99.90;;;;;;5064532;28;20025;-53
2022/09/19 10:32:37;;;;;;;7.60;2.15;;;16.60;99.90;;;;;;5054198;28;20047;-51
2022/09/19 10:35:27;;;;;;;7.97;2.30;;;16.40;99.90;;;;;;5053998;28;20025;-50
2022/09/19 10:38:13;;;;;;;3.45;1.30;;;16.30;99.90;;;;;;5055460;28;20158;-54
2022/09/19 10:40:56;;;;;;;6.22;2.10;;;16.30;99.90;;;;;;5054106;28;20021;-49
2022/09/19 10:43:39;;;;;;;7.68;1.95;;;16.20;99.90;;;;;;5053517;28;20499;-51
2022/09/19 10:46:06;;;;;;;9.35;1.80;;;16.40;99.90;;;;;;5054366;28;20074;-50
2022/09/19 10:48:34;;;;;;;4.32;1.75;;;16.40;99.90;;;;;;5054274;28;20369;-48
2022/09/19 10:51:06;;;;;;;4.95;2.83;;;16.40;99.90;;;;;;5053709;28;20032;-50
2022/09/19 10:53:33;;;;;;;7.35;2.53;;;16.40;99.90;;;;;;5053360;28;20032;-49
2022/09/19 10:56:04;;;;;;;5.13;1.55;;;16.20;99.90;;;;;;5052378;28;20110;-47
2022/09/19 10:58:35;;;;;;;3.88;1.80;;;16.20;99.90;;;;;;5053665;28;20104;-54
2022/09/19 11:01:02;;;;;;;4.68;1.58;;;16.10;99.90;;;;;;5053813;28;20099;-50
2022/09/19 11:03:39;;;;;;;7.97;2.38;;;16.20;99.90;;;;;;5051771;28;20396;-52
2022/09/19 11:06:08;;;;;;;8.68;1.90;;;16.30;99.90;;;;;;5053765;28;20078;-52
2022/09/19 11:08:45;;;;;;;11.68;2.33;;;16.40;99.90;;;;;;5053422;28;20028;-53
2022/09/19 11:11:37;;;;;;;5.93;2.03;;;16.40;99.90;;;;;;5053480;28;20025;-51
2022/09/19 11:14:11;;;;;;;11.55;1.95;;;16.30;99.90;;;;;;5052953;28;20025;-48
2022/09/19 11:17:03;;;;;;;9.93;2.22;;;16.20;99.90;;;;;;5053524;28;20439;-48
2022/09/19 11:19:48;;;;;;;12.95;1.88;;;16.30;99.90;;;;;;5052426;28;20039;-51
2022/09/19 11:22:27;;;;;;;8.57;2.10;;;16.30;99.90;;;;;;5051731;28;20021;-51
2022/09/19 11:25:11;;;;;;;6.18;2.13;;;16.30;99.90;;;;;;5053267;28;20051;-51
2022/09/19 11:27:50;;;;;;;6.88;1.70;;;16.30;99.90;;;;;;5053095;28;20017;-49
2022/09/19 11:30:20;;;;;;;9.57;2.15;;;16.30;99.90;;;;;;5052949;28;20098;-47
2022/09/19 11:32:57;;;;;;;7.85;1.70;;;16.30;99.90;;;;;;5051317;28;20021;-49
2022/09/19 11:35:39;;;;;;;6.65;1.92;;;16.40;99.90;;;;;;5052870;28;20048;-51
2022/09/19 11:38:36;;;;;;;5.63;1.85;;;16.40;99.90;;;;;;5052753;28;20017;-56
2022/09/19 11:41:23;;;;;;;9.60;1.70;;;16.50;99.90;;;;;;5052934;28;20017;-51
2022/09/19 11:44:31;;;;;;;6.28;1.95;;;16.60;99.90;;;;;;5051726;28;20017;-52
2022/09/19 11:47:16;;;;;;;5.20;1.42;;;16.60;99.90;;;;;;5052805;28;20570;-48
2022/09/19 11:50:20;;;;;;;8.13;1.93;;;16.60;99.90;;;;;;5052671;28;20529;-51
2022/09/19 11:53:21;;;;;;;3.72;1.77;;;16.60;99.90;;;;;;5052163;28;20274;-48
2022/09/19 11:55:51;;;;;;;9.63;1.70;;;16.60;99.90;;;;;;5052166;28;20083;-48
2022/09/19 11:58:51;;;;;;;3.40;1.63;;;16.70;99.90;;;;;;5052272;28;20400;-52
2022/09/19 12:01:36;;;;;;;7.50;1.63;;;16.80;99.90;;;;;;5052190;28;20017;-52
2022/09/19 12:04:38;;;;;;;6.15;2.08;;;16.70;99.90;;;;;;5051961;28;20092;-50
2022/09/19 12:07:34;;;;;;;9.30;1.70;;;16.70;99.90;;;;;;5043851;28;20033;-52
2022/09/19 12:10:10;;;;;;;;;;;16.70;99.90;;;;;;5052505;28;20134;-47
2022/09/19 12:12:39;;;;;;;6.57;1.60;;;16.80;99.90;;;;;;5051823;28;20300;-50
2022/09/19 12:15:22;;;;;;;6.25;1.50;;;16.90;99.90;;;;;;5052048;28;20096;-53
2022/09/19 12:17:58;;;;;;;7.35;1.55;;;17.10;99.90;;;;;;5051937;28;20111;-52
2022/09/19 12:20:37;;;;;;;7.38;1.73;;;17.10;99.90;;;;;;5051486;28;20411;-47
2022/09/19 12:25:57;;;;;;;6.90;1.60;;;17.10;99.90;;;;;;5052056;28;20025;-53
2022/09/19 12:28:31;;;;;;;9.15;2.15;;;16.90;99.90;;;;;;5051816;28;20369;-50
2022/09/19 12:31:00;;;;;;;4.22;1.30;;;16.90;99.90;;;;;;5050594;28;20036;-49
2022/09/19 12:33:40;;;;;;;3.92;1.40;;;16.90;99.90;;;;;;5051581;28;20028;-50
2022/09/19 12:36:30;;;;;;;2.72;1.25;;;16.90;99.90;;;;;;5053683;28;20142;-51
2022/09/19 12:39:13;;;;;;;7.25;1.60;;;16.90;99.90;;;;;;5054058;28;20104;-54
2022/09/19 12:41:52;;;;;;;7.22;1.48;;;16.90;99.90;;;;;;5053384;28;20100;-53
2022/09/19 12:44:45;;;;;;;5.72;1.60;;;17.00;99.90;;;;;;5053759;28;20021;-54
2022/09/19 12:47:17;;;;;;;7.03;1.45;;;17.10;99.90;;;;;;5055056;28;20035;-52
2022/09/19 12:50:07;;;;;;;5.50;1.25;;;17.30;99.90;;;;;;5055948;28;20086;-48
2022/09/19 12:52:38;;;;;;;5.75;1.20;;;17.20;99.90;;;;;;5055361;28;20021;-52
2022/09/19 12:55:28;;;;;;;3.75;1.50;;;17.30;99.90;;;;;;5054957;28;20027;-49
2022/09/19 12:58:04;;;;;;;5.55;1.52;;;17.30;99.90;;;;;;5053117;28;20049;-48
2022/09/19 13:00:35;;;;;;;4.25;1.30;;;17.20;99.90;;;;;;5053247;28;20029;-52
2022/09/19 13:03:12;;;;;;;2.90;0.95;;;17.20;99.90;;;;;;5053022;28;20037;-52
2022/09/19 13:05:47;;;;;;;2.13;1.10;;;17.10;99.90;;;;;;5053674;28;20397;-49
2022/09/19 13:08:24;;;;;;;6.60;1.33;;;17.10;99.90;;;;;;5051988;28;20119;-51
2022/09/19 13:11:20;;;;;;;5.10;1.20;;;17.20;99.90;;;;;;5053773;28;20024;-48
2022/09/19 13:13:53;;;;;;;9.32;1.05;;;17.30;99.90;;;;;;5051217;28;20025;-48
2022/09/19 13:16:24;;;;;;;2.13;0.85;;;17.30;99.90;;;;;;5053071;28;20435;-52
2022/09/19 13:24:47;;;;;;;2.90;1.23;;;17.40;99.90;;;;;;5054067;28;20104;-50
2022/09/19 13:27:14;;;;;;;5.15;1.27;;;17.40;99.90;;;;;;5053979;28;20020;-46
2022/09/19 13:29:43;;;;;;;2.38;1.10;;;17.40;99.90;;;;;;5052262;28;20021;-48
2022/09/19 13:32:46;;;;;;;6.32;1.33;;;17.40;99.90;;;;;;5052323;28;20025;-51
2022/09/19 13:35:16;;;;;;;6.05;1.20;;;17.50;99.90;;;;;;5051600;28;20025;-49
2022/09/19 13:37:46;;;;;;;3.35;1.20;;;17.50;99.90;;;;;;5052949;28;20025;-50
2022/09/19 13:40:53;;;;;;;5.85;1.45;;;17.60;99.90;;;;;;5050648;28;20086;-49